Time;durP1;ratioP1;P1;durP2;ratioP2;P2;SDS_P1;SDS_P2;PMS_P1;PMS_P2;Temp;Humidity;BMP_temperature;BMP_pressure;BME280_temperature;BME280_humidity;BME280_pressure;Samples;Min_cycle;Max_cycle;Signal;HPM_P1;HPM_P2
2022/06/02 20:32:56;;;;;;;17.57;5.40;;;;;;;21.19;92.10;97605.19;4460638;28;15133940;-78
2022/06/02 20:35:25;;;;;;;12.18;4.10;;;;;;;21.08;93.68;97592.69;5066933;28;20043;-75
2022/06/02 20:38:27;;;;;;;12.25;4.22;;;;;;;20.88;96.23;97580.28;5075033;28;20126;-77
2022/06/02 20:41:11;;;;;;;13.03;4.73;;;;;;;20.94;97.91;97601.41;5066697;28;20039;-78
2022/06/02 20:43:45;;;;;;;11.20;5.00;;;;;;;20.87;98.79;97597.59;5042425;28;20028;-78
2022/06/02 20:46:16;;;;;;;15.75;4.80;;;;;;;20.84;100.00;97602.50;5066734;28;20513;-78
2022/06/02 20:48:59;;;;;;;18.10;4.87;;;;;;;20.80;100.00;97610.13;5066371;28;20111;-78
2022/06/02 20:51:39;;;;;;;17.10;4.95;;;;;;;20.71;100.00;97616.50;5060955;28;20027;-78
2022/06/02 20:54:39;;;;;;;14.85;4.32;;;;;;;20.73;100.00;97616.34;5046477;28;20031;-78
2022/06/02 20:57:29;;;;;;;13.38;4.63;;;;;;;20.64;100.00;97615.41;5048060;28;20375;-78
2022/06/02 21:00:27;;;;;;;13.73;4.70;;;;;;;20.63;100.00;97619.16;5069927;28;20024;-76
2022/06/02 21:03:06;;;;;;;20.27;4.70;;;;;;;20.59;100.00;97616.88;5066353;28;20027;-77
2022/06/02 21:05:32;;;;;;;18.90;5.18;;;;;;;20.54;100.00;97620.94;5032584;28;20029;-77
2022/06/02 21:08:22;;;;;;;21.88;5.47;;;;;;;20.52;100.00;97608.50;5054231;28;20025;-77
2022/06/02 21:11:16;;;;;;;14.90;4.80;;;;;;;20.64;100.00;97604.53;5086574;28;20035;-76
2022/06/02 21:14:04;;;;;;;11.45;5.13;;;;;;;20.63;100.00;97612.84;5049086;28;20036;-76
2022/06/02 21:16:41;;;;;;;18.77;5.78;;;;;;;20.58;100.00;97615.19;5067702;28;20029;-76
2022/06/02 21:19:37;;;;;;;12.82;5.13;;;;;;;20.49;100.00;97606.94;5069210;28;20475;-77
2022/06/02 21:22:22;;;;;;;21.38;5.28;;;;;;;20.53;100.00;97612.94;5067798;28;20096;-77
2022/06/02 21:24:47;;;;;;;19.73;4.95;;;;;;;20.46;100.00;97606.41;5061187;28;20027;-77
2022/06/02 21:27:37;;;;;;;9.05;4.97;;;;;;;20.43;100.00;97617.56;5051751;28;20024;-76
2022/06/02 21:30:06;;;;;;;16.67;5.50;;;;;;;20.37;100.00;97612.75;5069552;28;20024;-76
2022/06/02 21:32:38;;;;;;;13.23;5.70;;;;;;;20.38;100.00;97618.06;5045731;28;20072;-77
2022/06/02 21:35:12;;;;;;;18.35;5.22;;;;;;;20.38;100.00;97618.06;5033946;28;20390;-76
2022/06/02 21:37:48;;;;;;;19.85;5.45;;;;;;;20.33;100.00;97616.81;5034753;28;20029;-77
2022/06/02 21:40:18;;;;;;;13.70;5.03;;;;;;;20.26;100.00;97611.13;5050481;28;20035;-77
2022/06/02 21:42:52;;;;;;;17.05;5.30;;;;;;;20.27;100.00;97617.44;5034087;28;20021;-78
2022/06/02 21:50:15;;;;;;;17.07;5.00;;;;;;;20.23;100.00;97619.56;5031293;28;20118;-79
2022/06/02 21:52:49;;;;;;;13.27;5.20;;;;;;;20.21;100.00;97623.44;5034037;28;20395;-77
2022/06/02 21:55:33;;;;;;;16.13;6.03;;;;;;;20.21;100.00;97623.44;5031734;28;20171;-78
2022/06/02 21:58:21;;;;;;;20.92;6.30;;;;;;;20.30;100.00;97626.09;5051576;28;20079;-77
2022/06/02 22:01:13;;;;;;;16.42;5.43;;;;;;;20.31;100.00;97635.13;5044506;28;20021;-77
2022/06/02 22:03:44;;;;;;;14.68;5.40;;;;;;;20.19;100.00;97634.44;5041106;28;20040;-77
2022/06/02 22:06:18;;;;;;;14.65;6.22;;;;;;;20.18;100.00;97637.34;5030761;28;20497;-77
2022/06/02 22:09:24;;;;;;;14.90;6.43;;;;;;;20.17;100.00;97624.75;5030472;28;20459;-77
2022/06/02 22:11:52;;;;;;;15.32;6.40;;;;;;;20.06;100.00;97624.97;5024989;28;20064;-77
2022/06/02 22:14:43;;;;;;;23.08;6.50;;;;;;;20.03;100.00;97624.25;5031348;28;20562;-77
2022/06/02 22:17:23;;;;;;;17.40;5.53;;;;;;;19.99;100.00;97628.25;5033439;28;20461;-77
2022/06/02 22:20:14;;;;;;;19.80;6.07;;;;;;;19.92;100.00;97635.31;5029708;28;20449;-77
2022/06/02 22:22:41;;;;;;;12.70;6.07;;;;;;;19.77;100.00;97644.97;5050167;28;20154;-76
2022/06/02 22:25:29;;;;;;;18.83;6.05;;;;;;;19.64;100.00;97636.31;5029808;28;20030;-77
2022/06/02 22:28:04;;;;;;;12.50;5.82;;;;;;;19.68;100.00;97636.88;5024205;28;20052;-77
2022/06/02 22:30:37;;;;;;;14.15;5.90;;;;;;;19.60;100.00;97640.31;5048597;28;20087;-77
2022/06/02 22:33:19;;;;;;;12.57;6.32;;;;;;;19.55;100.00;97649.91;5041126;28;20052;-77
2022/06/02 22:35:55;;;;;;;13.80;5.35;;;;;;;19.46;100.00;97638.09;5053269;28;20024;-77
2022/06/02 22:38:32;;;;;;;16.10;5.72;;;;;;;19.50;100.00;97638.66;5061854;28;20085;-77
2022/06/02 22:46:05;;;;;;;15.77;5.93;;;;;;;19.42;100.00;97637.53;5075626;28;20054;-77
2022/06/02 22:48:40;;;;;;;10.75;5.32;;;;;;;19.36;100.00;97639.94;5069334;28;20514;-78
2022/06/02 22:51:18;;;;;;;15.30;6.03;;;;;;;19.38;100.00;97635.25;5061456;28;20028;-78
2022/06/02 22:54:15;;;;;;;12.40;6.22;;;;;;;19.34;100.00;97639.25;5072682;28;20511;-78
2022/06/02 22:56:44;;;;;;;13.05;6.00;;;;;;;19.32;100.00;97652.94;5061623;28;20400;-77
2022/06/02 22:59:35;;;;;;;17.85;5.68;;;;;;;19.26;100.00;97656.22;5052956;28;20129;-78
2022/06/02 23:02:13;;;;;;;9.30;5.72;;;;;;;19.32;100.00;97654.78;5056476;28;20099;-78
2022/06/02 23:05:12;;;;;;;11.90;5.75;;;;;;;19.37;100.00;97661.50;5064363;28;20138;-78
2022/06/02 23:08:13;;;;;;;16.38;5.55;;;;;;;19.47;100.00;97656.09;5036118;28;20488;-78
2022/06/02 23:11:12;;;;;;;10.93;5.60;;;;;;;19.46;100.00;97654.38;5050097;28;20515;-78
2022/06/02 23:13:43;;;;;;;12.90;6.10;;;;;;;19.48;100.00;97657.78;5080614;28;20035;-77
2022/06/02 23:16:37;;;;;;;13.02;5.72;;;;;;;19.40;100.00;97638.69;5050658;28;20028;-78
2022/06/02 23:19:40;;;;;;;11.88;5.60;;;;;;;19.48;100.00;97658.63;5072419;28;20040;-78
2022/06/02 23:22:09;;;;;;;;;;;;;;;19.39;100.00;97656.81;5055102;28;20510;-78
2022/06/02 23:25:12;;;;;;;13.07;5.40;;;;;;;19.33;100.00;97662.78;5060766;28;19908;-78
2022/06/02 23:27:41;;;;;;;9.85;5.60;;;;;;;19.29;100.00;97674.94;5060961;28;20495;-78
2022/06/02 23:30:16;;;;;;;13.25;5.63;;;;;;;19.23;100.00;97680.94;5032835;28;20039;-78
2022/06/02 23:32:48;;;;;;;13.38;5.75;;;;;;;19.23;100.00;97680.06;5047967;28;20068;-78
2022/06/02 23:35:19;;;;;;;14.25;6.00;;;;;;;19.17;100.00;97675.22;5049384;28;20112;-77
2022/06/02 23:38:09;;;;;;;13.75;5.95;;;;;;;19.07;100.00;97675.28;5049115;28;20485;-78
2022/06/02 23:40:46;;;;;;;13.13;5.70;;;;;;;19.02;100.00;97680.25;5048940;28;20477;-78
2022/06/02 23:46:31;;;;;;;16.58;6.22;;;;;;;18.98;100.00;97691.53;5052820;28;20091;-78
2022/06/02 23:49:15;;;;;;;13.20;5.80;;;;;;;18.97;100.00;97681.69;5054094;28;20024;-77
2022/06/02 23:51:45;;;;;;;14.15;6.30;;;;;;;18.88;100.00;97676.16;5052820;28;20385;-78
2022/06/02 23:54:20;;;;;;;8.05;5.40;;;;;;;18.75;100.00;97670.16;5053057;28;20029;-77
2022/06/02 23:57:11;;;;;;;11.80;5.68;;;;;;;18.68;100.00;97687.97;5052947;28;20029;-77
2022/06/02 23:59:52;;;;;;;11.13;5.68;;;;;;;18.59;100.00;97686.09;5052852;28;20033;-78
